Delray, Michigan
Current Conditions -  °F | °C
As of 10:00 PM on Saturday 25 Oct 2014 (Local Time) from CYQG Reporting Station
Clear Clear  
Wind Chill: 57°   Ceiling: Unl
Heat Index: 57°   Visibility: 15mi
Dew Point: 34°   Wind: 13mph
Humidity: 41%   Direction: 280°W
Pressure: 29.8"   Gusts: NA
Location:  42.2774°N, 83.1542°W
Report Text: CYQG 260200Z 28011KT 15SM SKC 14/01 A2980 RMK SLP091 DENSITY ALT 700FT
Loading
Personal Weather Stations






























Interactive Weather Map
Tropical Storm Tracking
New forecast layout! Learn more

10-Day Weather Forecast

Advertisements
Track Severe Weather on mobile